Time;durP1;ratioP1;P1;durP2;ratioP2;P2;SDS_P1;SDS_P2;PMS_P1;PMS_P2;Temp;Humidity;BMP_temperature;BMP_pressure;BME280_temperature;BME280_humidity;BME280_pressure;Samples;Min_cycle;Max_cycle;Signal;HPM_P1;HPM_P2
2023/01/30 00:03:35;;;;;;;5.07;2.42;;;;;;;16.72;58.96;101731.09;4881880;29;20060;-83
2023/01/30 00:06:48;;;;;;;4.32;1.90;;;;;;;16.72;59.05;101731.94;4882634;29;20098;-83
2023/01/30 00:09:17;;;;;;;4.68;2.20;;;;;;;16.71;58.85;101722.44;4882445;29;20049;-85
2023/01/30 00:15:31;;;;;;;5.97;2.00;;;;;;;16.71;58.68;101705.97;4845776;29;20041;-84
2023/01/30 00:18:36;;;;;;;3.63;1.88;;;;;;;16.71;59.22;101700.78;4842172;29;20031;-82
2023/01/30 00:26:40;;;;;;;5.35;2.33;;;;;;;16.69;58.63;101685.16;4939891;24;20058;-84
2023/01/30 00:29:17;;;;;;;5.20;2.10;;;;;;;16.71;58.73;101700.78;4862573;29;20090;-84
2023/01/30 00:38:02;;;;;;;4.03;1.98;;;;;;;16.69;59.39;101679.09;4794625;29;20073;-86
2023/01/30 00:40:56;;;;;;;4.43;1.90;;;;;;;16.68;58.68;101660.03;4806810;29;20043;-86
2023/01/30 00:49:17;;;;;;;5.50;1.95;;;;;;;16.70;58.79;101653.13;4807868;29;20136;-86
2023/01/30 01:07:40;;;;;;;4.00;1.90;;;;;;;16.68;58.14;101647.03;5703306;23;20066;-87
2023/01/30 01:10:40;;;;;;;4.07;2.00;;;;;;;16.67;58.61;101634.91;4885755;29;20059;-87
2023/01/30 01:20:14;;;;;;;2.97;1.83;;;;;;;16.67;58.31;101630.56;4865540;29;20123;-86
2023/01/30 01:23:24;;;;;;;4.50;1.80;;;;;;;16.66;58.34;101623.63;4864224;29;20042;-87
2023/01/30 02:59:05;;;;;;;3.47;1.70;;;;;;;16.62;57.19;101595.03;4893151;24;20040;-88
2023/01/30 03:05:36;;;;;;;2.75;1.55;;;;;;;16.59;57.91;101600.19;4882206;29;20173;-86
2023/01/30 03:29:03;;;;;;;3.20;1.42;;;;;;;16.62;57.68;101598.47;4806833;29;20062;-86
2023/01/30 03:32:30;;;;;;;3.47;1.45;;;;;;;16.63;57.85;101595.00;4806103;30;20038;-87
2023/01/30 03:52:30;;;;;;;3.92;1.45;;;;;;;16.63;57.59;101595.00;4901144;29;20094;-86
2023/01/30 04:54:36;;;;;;;3.58;1.40;;;;;;;16.66;56.94;101618.44;5237589;24;20076;-86
2023/01/30 04:57:03;;;;;;;3.55;1.45;;;;;;;16.66;57.16;101607.19;4885843;29;20057;-86
2023/01/30 05:00:18;;;;;;;4.28;1.40;;;;;;;16.67;56.98;101609.78;4871109;29;20041;-87
2023/01/30 05:11:18;;;;;;;4.45;1.50;;;;;;;16.65;56.96;101608.88;5313997;23;20058;-87
2023/01/30 05:56:14;;;;;;;4.78;1.70;;;;;;;16.65;56.54;101640.06;5584147;23;20055;-84
2023/01/30 05:59:03;;;;;;;5.10;1.67;;;;;;;16.65;56.61;101649.59;4898857;29;20078;-82
2023/01/30 06:01:42;;;;;;;4.63;1.70;;;;;;;16.64;56.39;101651.34;4898547;29;20044;-82
2023/01/30 06:04:14;;;;;;;3.20;1.42;;;;;;;16.64;56.47;101664.34;4902191;29;20037;-83
2023/01/30 06:16:14;;;;;;;49.25;14.48;;;;;;;16.67;56.49;101664.34;4902007;29;20136;-79
2023/01/30 06:18:39;;;;;;;52.33;15.68;;;;;;;16.67;56.67;101656.56;4884319;29;20017;-82
2023/01/30 06:33:15;;;;;;;33.83;11.25;;;;;;;16.67;56.52;101640.97;5869975;23;21138;-84
2023/01/30 06:36:15;;;;;;;30.88;10.20;;;;;;;16.71;56.61;101651.41;4836194;29;20033;-86
2023/01/30 06:44:12;;;;;;;24.13;8.85;;;;;;;16.71;56.56;101654.84;4858951;29;20072;-80
2023/01/30 07:34:00;;;;;;;18.17;6.90;;;;;;;16.69;55.78;101708.53;5030559;23;20061;-83
2023/01/30 07:36:39;;;;;;;23.15;7.18;;;;;;;16.67;55.88;101700.72;4855551;29;20072;-84
2023/01/30 08:33:54;;;;;;;10.00;4.35;;;;;;;16.78;54.88;101757.13;4867338;29;20070;-84
2023/01/30 08:36:45;;;;;;;9.95;4.30;;;;;;;16.78;54.82;101755.41;4851000;29;20041;-84
2023/01/30 08:39:12;;;;;;;9.73;4.25;;;;;;;16.79;54.68;101772.75;4857661;29;20071;-84
2023/01/30 08:42:08;;;;;;;10.95;4.40;;;;;;;16.81;54.74;101759.78;4866536;29;20026;-84
2023/01/30 08:58:28;;;;;;;8.25;3.70;;;;;;;16.83;54.49;101797.97;4868910;29;20075;-84
2023/01/30 09:01:52;;;;;;;10.02;4.20;;;;;;;16.83;54.49;101805.75;4795150;30;20036;-84
2023/01/30 09:52:13;;;;;;;9.80;3.22;;;;;;;16.91;53.42;101863.00;4684706;27;20073;-84
2023/01/30 09:55:22;;;;;;;6.05;3.10;;;;;;;16.93;53.90;101847.44;4837163;29;20057;-84
2023/01/30 09:58:03;;;;;;;7.45;3.22;;;;;;;16.93;53.61;101855.22;4842146;29;20042;-84
2023/01/30 10:00:42;;;;;;;6.95;2.95;;;;;;;16.95;53.56;101838.78;4829842;29;20045;-84
2023/01/30 10:03:38;;;;;;;6.95;3.22;;;;;;;16.95;53.55;101850.91;4830137;29;20018;-83
2023/01/30 10:06:12;;;;;;;6.18;3.08;;;;;;;16.95;53.42;101867.38;4830390;29;20045;-84
2023/01/30 10:09:05;;;;;;;7.55;2.90;;;;;;;16.96;53.34;101874.34;4814531;29;20106;-84
2023/01/30 10:12:15;;;;;;;4.85;2.80;;;;;;;16.95;53.48;101879.53;4844873;29;20050;-84
2023/01/30 10:15:34;;;;;;;;;;;;;;;;;;;;;
2023/01/30 10:25:40;;;;;;;6.78;2.90;;;;;;;16.95;53.55;101903.78;4776349;30;20078;-84
2023/01/30 11:02:20;;;;;;;5.88;2.60;;;;;;;17.06;52.74;101915.16;4885723;29;20024;-84
2023/01/30 11:05:38;;;;;;;5.68;2.58;;;;;;;17.11;52.61;101912.59;4796260;29;20054;-84
2023/01/30 11:12:08;;;;;;;5.03;2.30;;;;;;;17.15;52.59;101908.31;4811272;29;20087;-84
2023/01/30 11:19:09;;;;;;;5.07;2.30;;;;;;;17.13;52.55;101899.63;4723694;30;20148;-83
2023/01/30 11:32:19;;;;;;;5.50;2.22;;;;;;;17.13;52.50;101923.88;4722642;30;20065;-84
2023/01/30 11:35:23;;;;;;;6.20;2.30;;;;;;;17.13;52.49;101916.09;4708306;30;20029;-84
2023/01/30 11:38:11;;;;;;;5.20;2.30;;;;;;;17.12;52.55;101929.97;4719717;30;20077;-84
2023/01/30 11:40:48;;;;;;;6.53;2.60;;;;;;;17.13;52.57;101930.81;4707699;30;20085;-84
2023/01/30 12:00:58;;;;;;;4.50;2.25;;;;;;;17.15;52.58;101937.78;5027459;24;20049;-84
2023/01/30 12:10:56;;;;;;;5.10;2.13;;;;;;;17.18;52.34;101936.94;4903644;29;20048;-84
2023/01/30 12:36:17;;;;;;;4.97;2.20;;;;;;;17.25;52.34;101944.81;5193178;23;20057;-83
2023/01/30 12:43:32;;;;;;;5.50;2.35;;;;;;;17.27;52.37;101953.53;4883003;29;20040;-84
2023/01/30 13:05:41;;;;;;;6.05;2.38;;;;;;;17.28;52.34;101991.66;4876131;29;20117;-83
2023/01/30 13:12:11;;;;;;;5.10;2.20;;;;;;;17.30;52.01;101989.09;4869299;29;20086;-84
2023/01/30 13:25:45;;;;;;;7.20;2.35;;;;;;;17.26;52.08;102003.78;4849534;29;20038;-84
2023/01/30 13:32:16;;;;;;;5.68;2.30;;;;;;;17.30;52.03;101996.03;4717990;30;20102;-84
2023/01/30 13:34:55;;;;;;;4.95;1.95;;;;;;;17.28;51.72;101998.63;4824252;29;20038;-84
2023/01/30 13:40:59;;;;;;;5.80;2.28;;;;;;;17.28;51.87;102016.81;4846661;29;20037;-83
2023/01/30 14:48:24;;;;;;;4.78;2.10;;;;;;;17.33;51.45;102145.22;4871041;29;20045;-85
2023/01/30 14:51:19;;;;;;;4.97;2.10;;;;;;;17.33;51.59;102146.97;4852925;29;20113;-81
2023/01/30 14:53:58;;;;;;;6.20;2.25;;;;;;;17.32;51.55;102148.69;4841229;29;20046;-82
2023/01/30 14:56:42;;;;;;;6.93;2.10;;;;;;;17.32;51.67;102158.25;4853800;29;20565;-80
2023/01/30 14:59:44;;;;;;;6.53;2.13;;;;;;;17.31;51.81;102159.06;4851228;29;20042;-82
2023/01/30 15:02:13;;;;;;;5.75;2.20;;;;;;;17.31;51.39;102166.88;4858474;29;20086;-82
2023/01/30 15:05:05;;;;;;;5.32;2.00;;;;;;;17.30;51.44;102181.63;4858525;29;20041;-82
2023/01/30 15:08:10;;;;;;;7.47;2.10;;;;;;;17.28;51.54;102193.75;4858654;29;20037;-82
2023/01/30 15:11:24;;;;;;;6.43;2.40;;;;;;;17.27;51.61;102181.59;4840271;29;20037;-82
2023/01/30 15:14:24;;;;;;;6.47;2.03;;;;;;;17.25;51.86;102194.56;4857853;29;20048;-81
2023/01/30 15:17:14;;;;;;;4.35;1.77;;;;;;;17.25;51.57;102189.38;4838799;29;20057;-82
2023/01/30 15:20:19;;;;;;;5.55;1.75;;;;;;;17.26;51.60;102185.03;4858135;29;20045;-82
2023/01/30 15:23:07;;;;;;;;;;;;;;;17.25;51.47;102186.78;4854173;29;20045;-82
2023/01/30 15:26:23;;;;;;;4.50;1.70;;;;;;;17.25;51.56;102201.50;4859681;29;19912;-82
2023/01/30 15:29:30;;;;;;;4.75;1.98;;;;;;;17.27;51.75;102218.03;4808062;29;20082;-82
2023/01/30 15:32:23;;;;;;;5.95;2.10;;;;;;;17.26;51.67;102234.47;4820276;29;20045;-82
2023/01/30 15:39:06;;;;;;;4.88;1.85;;;;;;;17.24;51.67;102238.78;4739414;30;20118;-83
2023/01/30 15:45:35;;;;;;;4.95;1.75;;;;;;;17.24;51.63;102242.25;4829068;29;20045;-83
2023/01/30 15:48:37;;;;;;;5.10;2.10;;;;;;;17.22;51.67;102250.88;4826877;29;20054;-82
2023/01/30 15:54:28;;;;;;;4.93;1.77;;;;;;;17.23;51.43;102263.91;4803183;30;20058;-82
2023/01/30 16:00:40;;;;;;;4.07;1.80;;;;;;;17.22;51.71;102271.69;4842325;29;20053;-82
2023/01/30 16:06:36;;;;;;;6.03;2.00;;;;;;;17.22;51.43;102271.69;4862656;29;20020;-82
2023/01/30 16:09:18;;;;;;;3.78;1.70;;;;;;;17.21;51.61;102277.75;4861836;29;20034;-83
2023/01/30 16:11:45;;;;;;;4.97;1.98;;;;;;;17.20;51.88;102276.00;4863125;29;20116;-82
2023/01/30 16:21:06;;;;;;;5.05;2.10;;;;;;;17.18;51.64;102291.59;4862909;29;20040;-83
2023/01/30 16:23:50;;;;;;;4.43;1.90;;;;;;;17.19;51.73;102295.06;4852340;29;20040;-80
2023/01/30 16:26:20;;;;;;;3.88;1.88;;;;;;;17.19;51.68;102303.75;4833327;29;20117;-80
2023/01/30 16:28:49;;;;;;;5.32;1.83;;;;;;;17.22;51.46;102305.50;4833936;29;20041;-80
2023/01/30 16:31:28;;;;;;;4.80;1.75;;;;;;;17.22;51.78;102321.13;4853277;29;20102;-81
2023/01/30 16:33:56;;;;;;;4.65;1.77;;;;;;;17.21;51.58;102322.84;4853387;29;20042;-82
2023/01/30 16:36:27;;;;;;;4.07;1.67;;;;;;;17.24;51.48;102332.44;4837913;29;20042;-81
2023/01/30 16:39:14;;;;;;;4.78;1.83;;;;;;;17.22;51.55;102339.34;4850009;29;20049;-81
2023/01/30 16:41:42;;;;;;;4.72;1.88;;;;;;;17.23;51.53;102335.91;4851877;29;20037;-81
2023/01/30 16:44:09;;;;;;;3.42;1.67;;;;;;;17.24;51.61;102348.03;4833282;29;20042;-81
2023/01/30 16:46:40;;;;;;;4.45;1.88;;;;;;;17.24;51.51;102348.03;4850101;29;20037;-81
2023/01/30 16:49:24;;;;;;;4.43;1.80;;;;;;;17.22;51.68;102341.94;4852207;29;20095;-81
2023/01/30 16:51:59;;;;;;;3.95;1.60;;;;;;;17.24;51.57;102348.03;4850635;29;20045;-81
2023/01/30 16:54:28;;;;;;;4.03;1.77;;;;;;;17.22;51.43;102353.25;4848486;29;20106;-81
2023/01/30 16:56:56;;;;;;;4.95;1.73;;;;;;;17.23;51.60;102359.31;4850170;29;20101;-81
2023/01/30 16:59:31;;;;;;;5.65;1.75;;;;;;;17.22;51.97;102355.84;4850067;29;20058;-81
2023/01/30 17:02:00;;;;;;;5.50;1.65;;;;;;;17.23;51.54;102361.91;4849460;29;20042;-81
2023/01/30 17:04:31;;;;;;;4.90;2.25;;;;;;;17.24;51.46;102368.84;4835811;29;20058;-81
2023/01/30 17:07:05;;;;;;;4.35;2.00;;;;;;;17.24;51.58;102376.66;4851209;29;20034;-80
2023/01/30 17:09:44;;;;;;;3.90;1.80;;;;;;;17.24;51.35;102374.06;4852586;29;20512;-80
2023/01/30 17:12:25;;;;;;;4.95;1.92;;;;;;;17.25;51.57;102383.63;4858029;29;20045;-81
2023/01/30 17:15:13;;;;;;;4.05;1.90;;;;;;;17.25;51.41;102388.84;4860964;29;20045;-81
2023/01/30 17:17:40;;;;;;;4.72;1.75;;;;;;;17.24;51.69;102387.06;4857844;29;20138;-81
2023/01/30 17:20:06;;;;;;;3.47;1.60;;;;;;;17.24;51.59;102397.47;4839754;29;20038;-81
2023/01/30 17:22:33;;;;;;;3.47;1.83;;;;;;;17.23;51.46;102399.22;4851214;29;20034;-81
2023/01/30 17:25:03;;;;;;;3.25;1.52;;;;;;;17.25;51.44;102399.25;4852626;29;20038;-81
2023/01/30 17:27:30;;;;;;;4.15;1.80;;;;;;;17.23;51.67;102401.81;4854243;29;20090;-81
2023/01/30 17:29:56;;;;;;;4.88;1.90;;;;;;;17.26;51.55;102404.44;4843024;29;20054;-82
2023/01/30 17:35:44;;;;;;;4.88;2.08;;;;;;;17.22;51.26;102423.47;4843882;29;20069;-81
2023/01/30 17:38:16;;;;;;;5.15;1.92;;;;;;;17.22;51.40;102423.47;5033594;24;20504;-82
2023/01/30 17:40:47;;;;;;;3.80;1.50;;;;;;;17.21;51.45;102439.94;4874193;29;20034;-82
2023/01/30 17:43:12;;;;;;;5.22;1.65;;;;;;;17.20;51.57;102435.59;4840883;29;20048;-82
2023/01/30 17:45:42;;;;;;;4.07;1.40;;;;;;;17.20;51.55;102435.59;4856436;29;20033;-82
2023/01/30 17:48:17;;;;;;;4.55;1.65;;;;;;;17.19;51.46;102428.63;4856306;29;20476;-82
2023/01/30 17:50:43;;;;;;;4.80;1.63;;;;;;;17.20;51.40;102426.88;4853348;29;20576;-81
2023/01/30 17:53:09;;;;;;;3.22;1.35;;;;;;;17.21;51.37;102423.44;4860337;29;20041;-82
2023/01/30 17:55:38;;;;;;;4.50;1.90;;;;;;;17.19;51.45;102417.34;4874377;29;20033;-82
2023/01/30 17:58:15;;;;;;;4.28;1.60;;;;;;;17.18;51.33;102429.47;4849626;29;20512;-82
2023/01/30 18:00:53;;;;;;;4.13;1.83;;;;;;;17.19;51.34;102427.75;4875788;29;20116;-82
2023/01/30 18:03:42;;;;;;;3.35;1.50;;;;;;;17.20;51.48;102437.28;4847204;29;20061;-82
2023/01/30 18:06:16;;;;;;;4.07;1.65;;;;;;;17.19;51.29;102443.34;4861279;29;20044;-83
2023/01/30 18:09:21;;;;;;;5.43;1.70;;;;;;;17.20;51.29;102437.28;4867491;29;20079;-82
2023/01/30 18:12:17;;;;;;;4.90;1.75;;;;;;;17.19;51.21;102444.22;4886232;29;20049;-83
2023/01/30 18:15:04;;;;;;;4.45;1.88;;;;;;;17.19;51.26;102438.16;4878843;29;20377;-81
2023/01/30 18:17:31;;;;;;;3.38;1.48;;;;;;;17.18;51.33;102441.59;4876761;29;20503;-81
2023/01/30 18:20:02;;;;;;;3.60;1.58;;;;;;;17.19;51.54;102433.81;4862071;29;20044;-81
2023/01/30 18:22:28;;;;;;;3.13;1.50;;;;;;;17.20;51.44;102442.50;4862847;29;20076;-81
2023/01/30 18:25:20;;;;;;;4.38;1.77;;;;;;;17.18;51.53;102452.91;4882902;29;20037;-82
2023/01/30 18:28:23;;;;;;;4.07;1.63;;;;;;;17.19;51.33;102470.25;4776032;30;20043;-82
2023/01/30 18:48:41;;;;;;;4.10;1.67;;;;;;;17.20;51.44;102497.13;4895747;23;20058;-82
2023/01/30 18:57:28;;;;;;;4.25;1.80;;;;;;;17.19;51.33;102498.00;4076910;27;20058;-83
2023/01/30 18:59:56;;;;;;;3.50;1.60;;;;;;;17.19;51.23;102501.47;4841263;29;20060;-81
2023/01/30 19:02:22;;;;;;;4.90;1.95;;;;;;;17.20;51.37;102510.13;4849949;29;20057;-80
2023/01/30 19:04:49;;;;;;;4.10;1.67;;;;;;;17.21;51.31;102514.50;4832663;29;20113;-83
2023/01/30 19:07:15;;;;;;;3.85;1.65;;;;;;;17.32;51.42;102512.97;4834785;29;20057;-81
2023/01/30 19:09:41;;;;;;;4.72;1.70;;;;;;;17.35;51.16;102512.16;4837177;29;20500;-82
2023/01/30 19:16:20;;;;;;;5.22;1.58;;;;;;;17.23;51.40;102518.88;4863135;29;20021;-82
2023/01/30 19:19:27;;;;;;;5.38;1.50;;;;;;;17.22;51.36;102531.84;4771980;30;20107;-82
2023/01/30 19:25:58;;;;;;;4.15;1.77;;;;;;;17.19;51.49;102543.09;4862890;29;20067;-82
2023/01/30 19:29:01;;;;;;;4.13;1.30;;;;;;;17.17;51.58;102541.31;4832236;29;20042;-82
2023/01/30 19:38:50;;;;;;;5.65;1.67;;;;;;;17.15;51.46;102530.84;4861473;29;20075;-82
2023/01/30 19:41:25;;;;;;;2.77;1.57;;;;;;;17.15;51.49;102532.59;4856341;29;20033;-82
2023/01/30 19:43:54;;;;;;;4.10;1.70;;;;;;;17.14;51.37;102531.72;4845343;29;20042;-81
2023/01/30 19:46:29;;;;;;;4.10;1.48;;;;;;;17.14;51.75;102533.44;4860998;29;20129;-82
2023/01/30 19:49:38;;;;;;;4.82;1.60;;;;;;;17.14;51.52;102526.53;4843438;29;20037;-85
2023/01/30 19:56:24;;;;;;;4.00;1.50;;;;;;;17.13;51.75;102550.75;4863496;29;20098;-83
2023/01/30 19:59:01;;;;;;;5.43;1.48;;;;;;;17.14;51.40;102557.72;4827818;29;20170;-84
2023/01/30 20:01:34;;;;;;;3.78;1.45;;;;;;;17.14;51.34;102556.88;4845166;29;20046;-83
2023/01/30 20:04:02;;;;;;;5.65;1.63;;;;;;;17.13;51.43;102560.31;4859506;29;20394;-80
2023/01/30 20:06:31;;;;;;;3.60;1.58;;;;;;;17.14;51.46;102552.53;4838302;29;20183;-81
2023/01/30 20:09:06;;;;;;;5.10;1.70;;;;;;;17.14;51.43;102549.06;4854078;29;20045;-81
2023/01/30 20:11:35;;;;;;;3.45;1.50;;;;;;;17.14;51.53;102547.34;4825570;29;20038;-82
2023/01/30 20:14:01;;;;;;;4.13;1.80;;;;;;;17.14;51.40;102551.66;4838361;29;20476;-81
2023/01/30 20:16:56;;;;;;;5.65;1.98;;;;;;;17.14;51.45;102541.25;4838112;29;20068;-81
2023/01/30 20:22:51;;;;;;;4.72;1.55;;;;;;;17.14;51.52;102556.88;4861025;29;20048;-81
2023/01/30 20:32:23;;;;;;;3.85;1.60;;;;;;;17.15;51.67;102556.88;4804443;29;20176;-80
2023/01/30 20:34:48;;;;;;;4.13;1.60;;;;;;;17.16;51.36;102553.44;4778403;30;20410;-80
2023/01/30 20:37:14;;;;;;;3.67;1.45;;;;;;;17.14;51.53;102552.53;4775072;30;20051;-81
2023/01/30 20:39:41;;;;;;;3.78;1.60;;;;;;;17.14;51.57;102539.53;4760324;30;20071;-80
2023/01/30 20:42:07;;;;;;;4.05;1.63;;;;;;;17.15;51.77;102541.25;4778042;30;20096;-80
2023/01/30 20:44:34;;;;;;;2.38;1.30;;;;;;;17.15;51.51;102535.19;4784698;30;20023;-82
2023/01/30 20:47:19;;;;;;;3.80;1.45;;;;;;;17.16;51.53;102536.94;4794221;30;20083;-82
2023/01/30 20:50:41;;;;;;;5.68;1.40;;;;;;;17.15;51.46;102536.06;4808831;30;20166;-83
2023/01/30 20:53:10;;;;;;;4.60;1.35;;;;;;;17.15;51.75;102536.06;4800813;29;20067;-82
2023/01/30 20:55:56;;;;;;;3.70;1.67;;;;;;;17.15;51.65;102535.19;4757184;30;20067;-83
2023/01/30 20:58:45;;;;;;;3.97;1.70;;;;;;;17.15;51.76;102528.25;4744071;30;20135;-83
2023/01/30 21:01:37;;;;;;;3.67;1.55;;;;;;;17.14;51.68;102531.72;4793319;30;20048;-82
2023/01/30 21:04:16;;;;;;;3.50;1.50;;;;;;;17.14;51.52;102534.31;4802902;30;20050;-83
2023/01/30 21:07:01;;;;;;;5.18;1.67;;;;;;;17.13;51.84;102539.50;4791825;30;20043;-84
2023/01/30 21:10:05;;;;;;;3.88;1.55;;;;;;;17.14;51.76;102534.31;4791454;30;20147;-83
2023/01/30 21:12:57;;;;;;;4.03;1.30;;;;;;;17.13;51.66;102537.75;4808945;29;20073;-83
2023/01/30 21:16:04;;;;;;;2.88;1.40;;;;;;;17.12;51.60;102525.63;4766318;30;20054;-83
2023/01/30 21:19:13;;;;;;;3.72;1.45;;;;;;;17.11;51.71;102529.03;4795337;30;20039;-84
2023/01/30 21:21:56;;;;;;;4.80;1.50;;;;;;;17.11;51.87;102529.03;4810210;30;20047;-83
2023/01/30 21:27:06;;;;;;;4.20;1.50;;;;;;;17.11;51.83;102554.19;4901065;24;20056;-83
2023/01/30 21:33:16;;;;;;;2.80;1.38;;;;;;;17.10;51.79;102550.72;4903499;29;20047;-85
2023/01/30 21:44:51;;;;;;;5.72;1.83;;;;;;;17.09;51.81;102561.94;4903545;29;20044;-83
2023/01/30 21:47:27;;;;;;;5.45;2.08;;;;;;;17.08;51.77;102556.75;4844760;29;20042;-83
2023/01/30 21:50:16;;;;;;;4.68;1.70;;;;;;;17.06;51.83;102557.56;4843889;29;20034;-83
2023/01/30 21:52:44;;;;;;;4.07;1.60;;;;;;;17.09;51.83;102563.69;4845865;29;20065;-85
2023/01/30 22:08:39;;;;;;;4.50;1.60;;;;;;;17.04;51.73;102566.19;4838326;29;20521;-78
2023/01/30 22:11:10;;;;;;;4.93;1.80;;;;;;;17.05;51.82;102560.16;4810886;29;20046;-79
2023/01/30 22:13:36;;;;;;;5.10;1.85;;;;;;;17.05;51.60;102557.56;4795998;29;20061;-79
2023/01/30 22:16:06;;;;;;;3.38;1.48;;;;;;;17.06;52.02;102549.75;4833125;29;20111;-81
